Butte Larose, Louisiana
Current Conditions -  °F | °C
As of 1:53 AM on Friday 19 Dec 2014 (Local Time) from KLFT Reporting Station
Light Rain Light Rain  
Wind Chill: 57°   Ceiling: 400
Heat Index: 57°   Visibility: 5mi
Dew Point: 55°   Wind: 3mph
Humidity: 93%   Direction: NA
Pressure: 30.05"   Gusts: NA
Location:  30.2731°N, 91.9325°W
Report Text: KLFT 190753Z VRB03KT 5SM -RA BR BKN004 OVC010 14/13 A3005 RMK AO2 RAB50 SLP175 P0001 T01390128
Loading
Personal Weather Stations






























Interactive Weather Map New forecast layout! Learn more

10-Day Weather Forecast

Advertisements
Track Severe Weather on mobile